Endeavor, Pennsylvania
Current Conditions -  °F | °C
As of 9:35 AM on Tuesday 21 Oct 2014 (Local Time) from KFKL Reporting Station
Overcast Overcast  
Wind Chill: 48°   Ceiling: 1800
Heat Index: 48°   Visibility: 7mi
Dew Point: 45°   Wind: 0mph
Humidity: 87%   Direction: NA
Pressure: 29.87"   Gusts: NA
Location:  41.59°N, 79.39°W
Report Text: KFKL 211335Z 00000KT 7SM SCT009 BKN018 OVC027 09/07 A2987 RMK AO1 P0007
Loading
Personal Weather Stations






























Interactive Weather Map
Tropical Storm Tracking
New forecast layout! Learn more

10-Day Weather Forecast

Advertisements
Track Severe Weather on mobile